KWDG/WDG METAR and TAF weather

Enter ICAO airport designator
Station Type Date Time Source
KWDG METAR 2019/07/17 18:50 UTC NOAA

KWDG 171850Z 20017G24KT 10SM SCT065 SCT200 38/19 A2990


Station Type Date Time Source
KWDG Decoded METAR 2019/07/17 18:50 UTC NOAA

Enid, Enid Woodring Regional Airport, OK, United States (KWDG) 36-22-45N 097-47-28W
Jul 17, 2019 - 02:50 PM EDT / 2019.07.17 1850 UTC
Wind: from the SSW (200 degrees) at 20 MPH (17 KT) gusting to 28 MPH (24 KT):0
Visibility: 10 mile(s):0
Sky conditions: partly cloudy
Temperature: 100 F (38 C)
Heat index: 104.2 F (40.1 C):1
Dew Point: 66 F (19 C)
Relative Humidity: 33%
Pressure (altimeter): 29.9 in. Hg (1012 hPa)
ob: KWDG 171850Z 20017G24KT 10SM SCT065 SCT200 38/19 A2990
cycle: 19

Station Type Date Time Source
KWDG TAF UTC NOAA

Error!

Example: see airport list